sensor_id;sensor_type;location;lat;lon;timestamp;P1;durP1;ratioP1;P2;durP2;ratioP2
25525;SDS011;13424;48.424;11.258;2024-03-02T00:00:28;25.75;;;19.60;;
25525;SDS011;13424;48.424;11.258;2024-03-02T00:02:54;27.73;;;20.42;;
25525;SDS011;13424;48.424;11.258;2024-03-02T00:05:22;27.73;;;19.25;;
25525;SDS011;13424;48.424;11.258;2024-03-02T00:07:55;28.00;;;18.95;;
25525;SDS011;13424;48.424;11.258;2024-03-02T00:10:26;29.25;;;20.45;;
25525;SDS011;13424;48.424;11.258;2024-03-02T00:13:06;29.83;;;19.15;;
25525;SDS011;13424;48.424;11.258;2024-03-02T00:18:02;25.58;;;19.13;;
25525;SDS011;13424;48.424;11.258;2024-03-02T00:20:30;29.42;;;19.55;;
25525;SDS011;13424;48.424;11.258;2024-03-02T00:23:04;28.55;;;20.35;;
25525;SDS011;13424;48.424;11.258;2024-03-02T00:25:44;29.17;;;19.55;;
25525;SDS011;13424;48.424;11.258;2024-03-02T00:31:05;31.45;;;22.40;;
25525;SDS011;13424;48.424;11.258;2024-03-02T00:33:45;28.27;;;19.25;;
25525;SDS011;13424;48.424;11.258;2024-03-02T00:36:15;29.33;;;19.50;;
25525;SDS011;13424;48.424;11.258;2024-03-02T00:38:51;25.92;;;19.98;;
25525;SDS011;13424;48.424;11.258;2024-03-02T00:41:32;29.63;;;20.20;;
25525;SDS011;13424;48.424;11.258;2024-03-02T00:46:38;25.75;;;19.83;;
25525;SDS011;13424;48.424;11.258;2024-03-02T00:51:50;28.17;;;18.85;;
25525;SDS011;13424;48.424;11.258;2024-03-02T00:54:22;31.08;;;20.13;;
25525;SDS011;13424;48.424;11.258;2024-03-02T00:56:52;29.65;;;20.77;;
25525;SDS011;13424;48.424;11.258;2024-03-02T00:59:20;28.98;;;20.20;;
25525;SDS011;13424;48.424;11.258;2024-03-02T01:01:48;31.63;;;20.80;;
25525;SDS011;13424;48.424;11.258;2024-03-02T01:04:15;31.80;;;20.60;;
25525;SDS011;13424;48.424;11.258;2024-03-02T01:06:44;28.98;;;20.50;;
25525;SDS011;13424;48.424;11.258;2024-03-02T01:09:11;28.75;;;19.55;;
25525;SDS011;13424;48.424;11.258;2024-03-02T01:11:37;29.55;;;21.20;;
25525;SDS011;13424;48.424;11.258;2024-03-02T01:14:03;29.60;;;19.95;;
25525;SDS011;13424;48.424;11.258;2024-03-02T01:16:29;28.38;;;20.42;;
25525;SDS011;13424;48.424;11.258;2024-03-02T01:18:55;26.48;;;19.60;;
25525;SDS011;13424;48.424;11.258;2024-03-02T01:21:21;27.20;;;20.23;;
25525;SDS011;13424;48.424;11.258;2024-03-02T01:23:47;28.98;;;20.52;;
25525;SDS011;13424;48.424;11.258;2024-03-02T01:26:13;28.25;;;21.10;;
25525;SDS011;13424;48.424;11.258;2024-03-02T01:28:39;32.22;;;20.23;;
25525;SDS011;13424;48.424;11.258;2024-03-02T01:31:05;28.25;;;20.88;;
25525;SDS011;13424;48.424;11.258;2024-03-02T01:33:31;36.90;;;22.20;;
25525;SDS011;13424;48.424;11.258;2024-03-02T01:35:57;33.58;;;22.63;;
25525;SDS011;13424;48.424;11.258;2024-03-02T01:38:23;35.38;;;23.60;;
25525;SDS011;13424;48.424;11.258;2024-03-02T01:40:49;34.03;;;22.13;;
25525;SDS011;13424;48.424;11.258;2024-03-02T01:43:17;33.45;;;22.02;;
25525;SDS011;13424;48.424;11.258;2024-03-02T01:45:42;31.70;;;21.27;;
25525;SDS011;13424;48.424;11.258;2024-03-02T01:48:09;30.63;;;23.25;;
25525;SDS011;13424;48.424;11.258;2024-03-02T01:50:35;34.15;;;23.35;;
25525;SDS011;13424;48.424;11.258;2024-03-02T01:53:02;30.23;;;21.42;;
25525;SDS011;13424;48.424;11.258;2024-03-02T01:55:31;29.58;;;21.17;;
25525;SDS011;13424;48.424;11.258;2024-03-02T01:57:59;34.17;;;21.52;;
25525;SDS011;13424;48.424;11.258;2024-03-02T02:00:29;31.88;;;22.52;;
25525;SDS011;13424;48.424;11.258;2024-03-02T02:02:55;32.92;;;22.40;;
25525;SDS011;13424;48.424;11.258;2024-03-02T02:05:22;36.47;;;22.77;;
25525;SDS011;13424;48.424;11.258;2024-03-02T02:07:48;37.17;;;22.15;;
25525;SDS011;13424;48.424;11.258;2024-03-02T02:10:15;33.72;;;23.05;;
25525;SDS011;13424;48.424;11.258;2024-03-02T02:12:41;32.78;;;22.58;;
25525;SDS011;13424;48.424;11.258;2024-03-02T02:15:30;38.67;;;24.42;;
25525;SDS011;13424;48.424;11.258;2024-03-02T02:17:58;33.97;;;24.45;;
25525;SDS011;13424;48.424;11.258;2024-03-02T02:20:25;34.65;;;23.50;;
25525;SDS011;13424;48.424;11.258;2024-03-02T02:23:03;36.80;;;24.63;;
25525;SDS011;13424;48.424;11.258;2024-03-02T02:25:36;35.58;;;22.80;;
25525;SDS011;13424;48.424;11.258;2024-03-02T02:28:02;38.83;;;24.38;;
25525;SDS011;13424;48.424;11.258;2024-03-02T02:30:30;35.35;;;22.10;;
25525;SDS011;13424;48.424;11.258;2024-03-02T02:32:58;33.15;;;22.55;;
25525;SDS011;13424;48.424;11.258;2024-03-02T02:35:25;34.53;;;23.65;;
25525;SDS011;13424;48.424;11.258;2024-03-02T02:37:51;32.45;;;23.15;;
25525;SDS011;13424;48.424;11.258;2024-03-02T02:40:20;31.95;;;21.45;;
25525;SDS011;13424;48.424;11.258;2024-03-02T02:42:46;31.95;;;22.35;;
25525;SDS011;13424;48.424;11.258;2024-03-02T02:45:13;33.88;;;21.83;;
25525;SDS011;13424;48.424;11.258;2024-03-02T02:47:41;35.20;;;23.58;;
25525;SDS011;13424;48.424;11.258;2024-03-02T02:50:08;35.72;;;23.40;;
25525;SDS011;13424;48.424;11.258;2024-03-02T02:52:35;32.13;;;22.33;;
25525;SDS011;13424;48.424;11.258;2024-03-02T02:55:06;39.97;;;23.70;;
25525;SDS011;13424;48.424;11.258;2024-03-02T02:57:34;36.38;;;24.00;;
25525;SDS011;13424;48.424;11.258;2024-03-02T03:00:10;37.20;;;23.60;;
25525;SDS011;13424;48.424;11.258;2024-03-02T03:02:41;28.33;;;21.23;;
25525;SDS011;13424;48.424;11.258;2024-03-02T03:05:13;34.97;;;23.77;;
25525;SDS011;13424;48.424;11.258;2024-03-02T03:07:40;33.63;;;22.17;;
25525;SDS011;13424;48.424;11.258;2024-03-02T03:10:07;34.90;;;21.63;;
25525;SDS011;13424;48.424;11.258;2024-03-02T03:12:34;32.45;;;22.17;;
25525;SDS011;13424;48.424;11.258;2024-03-02T03:15:02;30.65;;;22.08;;
25525;SDS011;13424;48.424;11.258;2024-03-02T03:17:33;34.70;;;23.23;;
25525;SDS011;13424;48.424;11.258;2024-03-02T03:20:00;38.88;;;23.50;;
25525;SDS011;13424;48.424;11.258;2024-03-02T03:22:27;29.88;;;22.45;;
25525;SDS011;13424;48.424;11.258;2024-03-02T03:24:53;31.20;;;22.23;;
25525;SDS011;13424;48.424;11.258;2024-03-02T03:27:19;30.40;;;21.08;;
25525;SDS011;13424;48.424;11.258;2024-03-02T03:29:46;34.85;;;22.48;;
25525;SDS011;13424;48.424;11.258;2024-03-02T03:32:12;32.05;;;21.95;;
25525;SDS011;13424;48.424;11.258;2024-03-02T03:34:38;30.13;;;21.10;;
25525;SDS011;13424;48.424;11.258;2024-03-02T03:37:04;31.45;;;20.95;;
25525;SDS011;13424;48.424;11.258;2024-03-02T03:39:30;32.55;;;23.05;;
25525;SDS011;13424;48.424;11.258;2024-03-02T03:41:56;31.35;;;20.75;;
25525;SDS011;13424;48.424;11.258;2024-03-02T03:44:22;32.55;;;21.77;;
25525;SDS011;13424;48.424;11.258;2024-03-02T03:46:48;32.78;;;23.05;;
25525;SDS011;13424;48.424;11.258;2024-03-02T03:49:14;30.67;;;21.70;;
25525;SDS011;13424;48.424;11.258;2024-03-02T03:51:40;32.22;;;22.90;;
25525;SDS011;13424;48.424;11.258;2024-03-02T03:54:06;30.10;;;21.83;;
25525;SDS011;13424;48.424;11.258;2024-03-02T03:56:32;33.65;;;24.00;;
25525;SDS011;13424;48.424;11.258;2024-03-02T03:58:58;34.10;;;24.23;;
25525;SDS011;13424;48.424;11.258;2024-03-02T04:01:25;30.95;;;22.20;;
25525;SDS011;13424;48.424;11.258;2024-03-02T04:03:51;35.65;;;24.75;;
25525;SDS011;13424;48.424;11.258;2024-03-02T04:06:16;33.80;;;24.65;;
25525;SDS011;13424;48.424;11.258;2024-03-02T04:08:42;38.08;;;24.35;;
25525;SDS011;13424;48.424;11.258;2024-03-02T04:11:08;35.60;;;23.95;;
25525;SDS011;13424;48.424;11.258;2024-03-02T04:13:34;33.60;;;23.52;;
25525;SDS011;13424;48.424;11.258;2024-03-02T04:16:00;31.83;;;22.67;;
25525;SDS011;13424;48.424;11.258;2024-03-02T04:18:26;38.85;;;22.48;;
25525;SDS011;13424;48.424;11.258;2024-03-02T04:20:52;28.27;;;21.10;;
25525;SDS011;13424;48.424;11.258;2024-03-02T04:23:18;35.45;;;22.10;;
25525;SDS011;13424;48.424;11.258;2024-03-02T04:25:44;30.33;;;21.45;;
25525;SDS011;13424;48.424;11.258;2024-03-02T04:28:10;36.28;;;23.92;;
25525;SDS011;13424;48.424;11.258;2024-03-02T04:30:37;29.70;;;22.35;;
25525;SDS011;13424;48.424;11.258;2024-03-02T04:33:04;32.38;;;21.30;;
25525;SDS011;13424;48.424;11.258;2024-03-02T04:35:32;32.70;;;21.63;;
25525;SDS011;13424;48.424;11.258;2024-03-02T04:37:58;29.20;;;21.77;;
25525;SDS011;13424;48.424;11.258;2024-03-02T04:40:24;33.13;;;24.10;;
25525;SDS011;13424;48.424;11.258;2024-03-02T04:42:50;36.33;;;24.60;;
25525;SDS011;13424;48.424;11.258;2024-03-02T04:45:17;34.17;;;24.98;;
25525;SDS011;13424;48.424;11.258;2024-03-02T04:47:43;38.03;;;23.77;;
25525;SDS011;13424;48.424;11.258;2024-03-02T04:50:09;44.28;;;26.85;;
25525;SDS011;13424;48.424;11.258;2024-03-02T04:52:36;37.95;;;26.10;;
25525;SDS011;13424;48.424;11.258;2024-03-02T04:55:02;44.00;;;28.10;;
25525;SDS011;13424;48.424;11.258;2024-03-02T04:57:35;41.78;;;27.23;;
25525;SDS011;13424;48.424;11.258;2024-03-02T05:00:01;44.90;;;29.45;;
25525;SDS011;13424;48.424;11.258;2024-03-02T05:04:58;40.50;;;25.92;;
25525;SDS011;13424;48.424;11.258;2024-03-02T05:07:24;42.47;;;27.95;;
25525;SDS011;13424;48.424;11.258;2024-03-02T05:09:49;42.05;;;27.70;;
25525;SDS011;13424;48.424;11.258;2024-03-02T05:12:15;48.25;;;32.97;;
25525;SDS011;13424;48.424;11.258;2024-03-02T05:15:00;55.50;;;37.70;;
25525;SDS011;13424;48.424;11.258;2024-03-02T05:17:27;50.63;;;33.78;;
25525;SDS011;13424;48.424;11.258;2024-03-02T05:19:53;47.10;;;31.98;;
25525;SDS011;13424;48.424;11.258;2024-03-02T05:22:19;46.28;;;33.65;;
25525;SDS011;13424;48.424;11.258;2024-03-02T05:24:45;47.53;;;33.58;;
25525;SDS011;13424;48.424;11.258;2024-03-02T05:27:11;48.45;;;32.28;;
25525;SDS011;13424;48.424;11.258;2024-03-02T05:29:37;52.92;;;33.97;;
25525;SDS011;13424;48.424;11.258;2024-03-02T05:32:03;48.97;;;31.90;;
25525;SDS011;13424;48.424;11.258;2024-03-02T05:34:29;52.05;;;33.95;;
25525;SDS011;13424;48.424;11.258;2024-03-02T05:36:56;57.13;;;37.20;;
25525;SDS011;13424;48.424;11.258;2024-03-02T05:39:23;49.03;;;33.58;;
25525;SDS011;13424;48.424;11.258;2024-03-02T05:41:49;47.90;;;31.05;;
25525;SDS011;13424;48.424;11.258;2024-03-02T05:44:14;49.35;;;31.17;;
25525;SDS011;13424;48.424;11.258;2024-03-02T05:46:41;47.70;;;31.20;;
25525;SDS011;13424;48.424;11.258;2024-03-02T05:49:08;48.85;;;32.20;;
25525;SDS011;13424;48.424;11.258;2024-03-02T05:51:35;70.82;;;56.03;;
25525;SDS011;13424;48.424;11.258;2024-03-02T05:54:01;54.40;;;38.30;;
25525;SDS011;13424;48.424;11.258;2024-03-02T05:56:27;44.25;;;31.00;;
25525;SDS011;13424;48.424;11.258;2024-03-02T05:58:53;43.90;;;28.13;;
25525;SDS011;13424;48.424;11.258;2024-03-02T06:01:47;45.47;;;30.30;;
25525;SDS011;13424;48.424;11.258;2024-03-02T06:04:16;41.65;;;29.27;;
25525;SDS011;13424;48.424;11.258;2024-03-02T06:06:42;45.05;;;29.70;;
25525;SDS011;13424;48.424;11.258;2024-03-02T06:09:09;42.35;;;29.30;;
25525;SDS011;13424;48.424;11.258;2024-03-02T06:11:38;42.10;;;29.00;;
25525;SDS011;13424;48.424;11.258;2024-03-02T06:14:07;41.85;;;27.52;;
25525;SDS011;13424;48.424;11.258;2024-03-02T06:16:34;35.75;;;26.38;;
25525;SDS011;13424;48.424;11.258;2024-03-02T06:19:00;40.53;;;26.30;;
25525;SDS011;13424;48.424;11.258;2024-03-02T06:21:27;35.22;;;25.13;;
25525;SDS011;13424;48.424;11.258;2024-03-02T06:23:53;34.38;;;24.85;;
25525;SDS011;13424;48.424;11.258;2024-03-02T06:26:20;36.85;;;25.05;;
25525;SDS011;13424;48.424;11.258;2024-03-02T06:28:46;36.20;;;24.95;;
25525;SDS011;13424;48.424;11.258;2024-03-02T06:31:12;38.20;;;25.95;;
25525;SDS011;13424;48.424;11.258;2024-03-02T06:33:38;42.38;;;26.88;;
25525;SDS011;13424;48.424;11.258;2024-03-02T06:36:05;40.70;;;26.15;;
25525;SDS011;13424;48.424;11.258;2024-03-02T06:38:34;43.92;;;30.02;;
25525;SDS011;13424;48.424;11.258;2024-03-02T06:41:00;41.22;;;28.00;;
25525;SDS011;13424;48.424;11.258;2024-03-02T06:43:26;41.80;;;27.92;;
25525;SDS011;13424;48.424;11.258;2024-03-02T06:45:52;42.47;;;29.88;;
25525;SDS011;13424;48.424;11.258;2024-03-02T06:48:19;61.88;;;44.05;;
25525;SDS011;13424;48.424;11.258;2024-03-02T06:50:49;45.13;;;31.17;;
25525;SDS011;13424;48.424;11.258;2024-03-02T06:53:16;40.97;;;29.80;;
25525;SDS011;13424;48.424;11.258;2024-03-02T06:55:46;43.33;;;30.90;;
25525;SDS011;13424;48.424;11.258;2024-03-02T06:58:13;46.47;;;32.20;;
25525;SDS011;13424;48.424;11.258;2024-03-02T07:00:42;51.83;;;36.03;;
25525;SDS011;13424;48.424;11.258;2024-03-02T07:03:12;36.00;;;26.27;;
25525;SDS011;13424;48.424;11.258;2024-03-02T07:05:39;32.25;;;23.63;;
25525;SDS011;13424;48.424;11.258;2024-03-02T07:08:05;34.78;;;23.33;;
25525;SDS011;13424;48.424;11.258;2024-03-02T07:10:31;29.90;;;22.40;;
25525;SDS011;13424;48.424;11.258;2024-03-02T07:12:58;53.35;;;22.83;;
25525;SDS011;13424;48.424;11.258;2024-03-02T07:15:23;60.55;;;25.27;;
25525;SDS011;13424;48.424;11.258;2024-03-02T07:17:52;126.20;;;24.55;;
25525;SDS011;13424;48.424;11.258;2024-03-02T07:20:18;71.50;;;24.88;;
25525;SDS011;13424;48.424;11.258;2024-03-02T07:22:44;40.55;;;23.30;;
25525;SDS011;13424;48.424;11.258;2024-03-02T07:25:11;53.47;;;26.95;;
25525;SDS011;13424;48.424;11.258;2024-03-02T07:27:38;53.75;;;32.97;;
25525;SDS011;13424;48.424;11.258;2024-03-02T07:30:06;78.93;;;33.25;;
25525;SDS011;13424;48.424;11.258;2024-03-02T07:32:32;52.42;;;27.58;;
25525;SDS011;13424;48.424;11.258;2024-03-02T07:34:58;57.47;;;26.05;;
25525;SDS011;13424;48.424;11.258;2024-03-02T07:37:29;46.00;;;28.15;;
25525;SDS011;13424;48.424;11.258;2024-03-02T07:39:55;40.13;;;26.50;;
25525;SDS011;13424;48.424;11.258;2024-03-02T07:42:21;45.88;;;30.13;;
25525;SDS011;13424;48.424;11.258;2024-03-02T07:44:47;51.28;;;32.40;;
25525;SDS011;13424;48.424;11.258;2024-03-02T07:47:13;48.53;;;31.42;;
25525;SDS011;13424;48.424;11.258;2024-03-02T07:49:39;42.05;;;29.25;;
25525;SDS011;13424;48.424;11.258;2024-03-02T07:52:05;37.38;;;26.30;;
25525;SDS011;13424;48.424;11.258;2024-03-02T07:54:32;35.67;;;25.55;;
25525;SDS011;13424;48.424;11.258;2024-03-02T07:56:58;33.95;;;24.08;;
25525;SDS011;13424;48.424;11.258;2024-03-02T07:59:25;32.72;;;23.25;;
25525;SDS011;13424;48.424;11.258;2024-03-02T08:01:51;30.80;;;23.27;;
25525;SDS011;13424;48.424;11.258;2024-03-02T08:04:17;28.77;;;22.17;;
25525;SDS011;13424;48.424;11.258;2024-03-02T08:06:45;33.83;;;24.40;;
25525;SDS011;13424;48.424;11.258;2024-03-02T08:09:11;28.98;;;22.30;;
25525;SDS011;13424;48.424;11.258;2024-03-02T08:11:37;32.30;;;22.42;;
25525;SDS011;13424;48.424;11.258;2024-03-02T08:14:03;29.63;;;22.58;;
25525;SDS011;13424;48.424;11.258;2024-03-02T08:16:29;31.00;;;21.65;;
25525;SDS011;13424;48.424;11.258;2024-03-02T08:18:55;32.83;;;24.08;;
25525;SDS011;13424;48.424;11.258;2024-03-02T08:21:23;42.85;;;30.95;;
25525;SDS011;13424;48.424;11.258;2024-03-02T08:23:50;39.40;;;27.75;;
25525;SDS011;13424;48.424;11.258;2024-03-02T08:26:16;36.55;;;28.48;;
25525;SDS011;13424;48.424;11.258;2024-03-02T08:28:42;34.28;;;25.40;;
25525;SDS011;13424;48.424;11.258;2024-03-02T08:31:09;31.38;;;22.55;;
25525;SDS011;13424;48.424;11.258;2024-03-02T08:33:35;34.83;;;22.55;;
25525;SDS011;13424;48.424;11.258;2024-03-02T08:36:01;32.25;;;22.83;;
25525;SDS011;13424;48.424;11.258;2024-03-02T08:38:27;34.22;;;22.77;;
25525;SDS011;13424;48.424;11.258;2024-03-02T08:40:54;36.15;;;24.45;;
25525;SDS011;13424;48.424;11.258;2024-03-02T08:43:20;33.47;;;21.52;;
25525;SDS011;13424;48.424;11.258;2024-03-02T08:45:48;33.05;;;22.95;;
25525;SDS011;13424;48.424;11.258;2024-03-02T08:48:15;35.20;;;22.95;;
25525;SDS011;13424;48.424;11.258;2024-03-02T08:50:41;35.58;;;22.70;;
25525;SDS011;13424;48.424;11.258;2024-03-02T08:53:07;32.08;;;22.45;;
25525;SDS011;13424;48.424;11.258;2024-03-02T08:55:33;32.92;;;22.55;;
25525;SDS011;13424;48.424;11.258;2024-03-02T08:57:59;32.03;;;21.35;;
25525;SDS011;13424;48.424;11.258;2024-03-02T09:00:25;31.20;;;20.45;;
25525;SDS011;13424;48.424;11.258;2024-03-02T09:02:51;32.70;;;22.85;;
25525;SDS011;13424;48.424;11.258;2024-03-02T09:05:17;34.20;;;21.73;;
25525;SDS011;13424;48.424;11.258;2024-03-02T09:07:43;29.95;;;20.05;;
25525;SDS011;13424;48.424;11.258;2024-03-02T09:10:10;30.23;;;20.45;;
25525;SDS011;13424;48.424;11.258;2024-03-02T09:12:36;30.45;;;22.00;;
25525;SDS011;13424;48.424;11.258;2024-03-02T09:15:03;31.38;;;20.92;;
25525;SDS011;13424;48.424;11.258;2024-03-02T09:17:31;31.92;;;20.60;;
25525;SDS011;13424;48.424;11.258;2024-03-02T09:19:57;30.80;;;20.85;;
25525;SDS011;13424;48.424;11.258;2024-03-02T09:22:23;29.35;;;20.38;;
25525;SDS011;13424;48.424;11.258;2024-03-02T09:24:49;28.40;;;20.52;;
25525;SDS011;13424;48.424;11.258;2024-03-02T09:27:15;31.30;;;21.30;;
25525;SDS011;13424;48.424;11.258;2024-03-02T09:29:41;28.60;;;20.35;;
25525;SDS011;13424;48.424;11.258;2024-03-02T09:32:12;32.65;;;22.60;;
25525;SDS011;13424;48.424;11.258;2024-03-02T09:34:39;31.48;;;20.92;;
25525;SDS011;13424;48.424;11.258;2024-03-02T09:37:06;30.20;;;21.42;;
25525;SDS011;13424;48.424;11.258;2024-03-02T09:39:32;31.42;;;21.80;;
25525;SDS011;13424;48.424;11.258;2024-03-02T09:41:58;32.08;;;21.77;;
25525;SDS011;13424;48.424;11.258;2024-03-02T09:44:25;27.65;;;21.90;;
25525;SDS011;13424;48.424;11.258;2024-03-02T09:46:52;35.53;;;21.85;;
25525;SDS011;13424;48.424;11.258;2024-03-02T09:49:18;32.22;;;21.95;;
25525;SDS011;13424;48.424;11.258;2024-03-02T09:51:48;36.00;;;22.92;;
25525;SDS011;13424;48.424;11.258;2024-03-02T09:54:15;30.10;;;22.40;;
25525;SDS011;13424;48.424;11.258;2024-03-02T09:56:41;34.00;;;22.50;;
25525;SDS011;13424;48.424;11.258;2024-03-02T09:59:08;33.63;;;21.60;;
25525;SDS011;13424;48.424;11.258;2024-03-02T10:01:33;34.45;;;23.75;;
25525;SDS011;13424;48.424;11.258;2024-03-02T10:04:00;33.33;;;22.77;;
25525;SDS011;13424;48.424;11.258;2024-03-02T10:06:28;34.03;;;23.20;;
25525;SDS011;13424;48.424;11.258;2024-03-02T10:08:55;29.80;;;21.52;;
25525;SDS011;13424;48.424;11.258;2024-03-02T10:11:29;24.30;;;18.23;;
25525;SDS011;13424;48.424;11.258;2024-03-02T10:14:11;28.67;;;19.23;;
25525;SDS011;13424;48.424;11.258;2024-03-02T10:16:43;27.70;;;17.60;;
25525;SDS011;13424;48.424;11.258;2024-03-02T10:21:47;33.92;;;21.73;;
25525;SDS011;13424;48.424;11.258;2024-03-02T10:24:18;27.92;;;20.75;;
25525;SDS011;13424;48.424;11.258;2024-03-02T10:26:45;26.42;;;20.25;;
25525;SDS011;13424;48.424;11.258;2024-03-02T10:29:12;33.85;;;20.77;;
25525;SDS011;13424;48.424;11.258;2024-03-02T10:31:39;38.72;;;22.85;;
25525;SDS011;13424;48.424;11.258;2024-03-02T10:34:11;35.53;;;22.15;;
25525;SDS011;13424;48.424;11.258;2024-03-02T10:36:43;37.53;;;22.90;;
25525;SDS011;13424;48.424;11.258;2024-03-02T10:39:10;38.88;;;24.08;;
25525;SDS011;13424;48.424;11.258;2024-03-02T10:41:40;40.47;;;26.73;;
25525;SDS011;13424;48.424;11.258;2024-03-02T10:44:07;40.03;;;24.83;;
25525;SDS011;13424;48.424;11.258;2024-03-02T10:46:36;42.95;;;27.88;;
25525;SDS011;13424;48.424;11.258;2024-03-02T10:49:04;38.20;;;25.00;;
25525;SDS011;13424;48.424;11.258;2024-03-02T10:51:32;41.65;;;26.85;;
25525;SDS011;13424;48.424;11.258;2024-03-02T10:54:02;44.33;;;26.67;;
25525;SDS011;13424;48.424;11.258;2024-03-02T10:56:40;40.90;;;24.20;;
25525;SDS011;13424;48.424;11.258;2024-03-02T10:59:17;45.17;;;26.52;;
25525;SDS011;13424;48.424;11.258;2024-03-02T11:01:56;44.38;;;25.13;;
25525;SDS011;13424;48.424;11.258;2024-03-02T11:06:56;43.03;;;24.20;;
25525;SDS011;13424;48.424;11.258;2024-03-02T11:09:51;40.10;;;24.58;;
25525;SDS011;13424;48.424;11.258;2024-03-02T11:12:48;47.67;;;26.30;;
25525;SDS011;13424;48.424;11.258;2024-03-02T11:15:27;46.58;;;26.05;;
25525;SDS011;13424;48.424;11.258;2024-03-02T11:17:53;47.17;;;26.20;;
25525;SDS011;13424;48.424;11.258;2024-03-02T11:20:20;44.65;;;27.92;;
25525;SDS011;13424;48.424;11.258;2024-03-02T11:22:47;44.28;;;26.33;;
25525;SDS011;13424;48.424;11.258;2024-03-02T11:25:25;41.67;;;25.15;;
25525;SDS011;13424;48.424;11.258;2024-03-02T11:35:36;43.70;;;26.00;;
25525;SDS011;13424;48.424;11.258;2024-03-02T11:38:09;42.20;;;23.52;;
25525;SDS011;13424;48.424;11.258;2024-03-02T11:40:35;39.92;;;24.65;;
25525;SDS011;13424;48.424;11.258;2024-03-02T11:43:04;38.65;;;23.45;;
25525;SDS011;13424;48.424;11.258;2024-03-02T11:45:31;39.15;;;24.25;;
25525;SDS011;13424;48.424;11.258;2024-03-02T11:47:59;37.42;;;24.45;;
25525;SDS011;13424;48.424;11.258;2024-03-02T11:50:36;41.05;;;23.42;;
25525;SDS011;13424;48.424;11.258;2024-03-02T11:53:14;35.60;;;21.42;;
25525;SDS011;13424;48.424;11.258;2024-03-02T11:55:40;40.78;;;23.50;;
25525;SDS011;13424;48.424;11.258;2024-03-02T11:58:11;31.38;;;21.20;;
25525;SDS011;13424;48.424;11.258;2024-03-02T12:00:38;42.15;;;24.98;;
25525;SDS011;13424;48.424;11.258;2024-03-02T12:03:09;40.38;;;24.77;;
25525;SDS011;13424;48.424;11.258;2024-03-02T12:05:38;41.65;;;24.23;;
25525;SDS011;13424;48.424;11.258;2024-03-02T12:08:06;36.28;;;21.63;;
25525;SDS011;13424;48.424;11.258;2024-03-02T12:10:33;36.92;;;20.77;;
25525;SDS011;13424;48.424;11.258;2024-03-02T12:13:04;37.08;;;22.95;;
25525;SDS011;13424;48.424;11.258;2024-03-02T12:15:34;38.80;;;23.23;;
25525;SDS011;13424;48.424;11.258;2024-03-02T12:18:02;44.65;;;27.08;;
25525;SDS011;13424;48.424;11.258;2024-03-02T12:20:30;42.97;;;26.15;;
25525;SDS011;13424;48.424;11.258;2024-03-02T12:22:59;37.33;;;22.55;;
25525;SDS011;13424;48.424;11.258;2024-03-02T12:25:28;34.22;;;20.25;;
25525;SDS011;13424;48.424;11.258;2024-03-02T12:27:58;37.72;;;21.85;;
25525;SDS011;13424;48.424;11.258;2024-03-02T12:30:30;35.50;;;22.85;;
25525;SDS011;13424;48.424;11.258;2024-03-02T12:33:00;41.53;;;26.73;;
25525;SDS011;13424;48.424;11.258;2024-03-02T12:35:26;47.33;;;26.95;;
25525;SDS011;13424;48.424;11.258;2024-03-02T12:37:53;42.35;;;26.38;;
25525;SDS011;13424;48.424;11.258;2024-03-02T12:40:20;36.92;;;24.45;;
25525;SDS011;13424;48.424;11.258;2024-03-02T12:42:48;46.15;;;26.65;;
25525;SDS011;13424;48.424;11.258;2024-03-02T12:45:15;35.92;;;22.95;;
25525;SDS011;13424;48.424;11.258;2024-03-02T12:47:49;39.33;;;22.27;;
25525;SDS011;13424;48.424;11.258;2024-03-02T12:50:16;36.65;;;23.27;;
25525;SDS011;13424;48.424;11.258;2024-03-02T12:52:43;36.25;;;23.35;;
25525;SDS011;13424;48.424;11.258;2024-03-02T12:55:09;40.33;;;25.52;;
25525;SDS011;13424;48.424;11.258;2024-03-02T12:57:35;41.45;;;26.52;;
25525;SDS011;13424;48.424;11.258;2024-03-02T13:00:05;46.55;;;28.38;;
25525;SDS011;13424;48.424;11.258;2024-03-02T13:02:34;48.10;;;28.27;;
25525;SDS011;13424;48.424;11.258;2024-03-02T13:05:08;49.63;;;27.85;;
25525;SDS011;13424;48.424;11.258;2024-03-02T13:07:36;46.92;;;28.15;;
25525;SDS011;13424;48.424;11.258;2024-03-02T13:10:04;47.65;;;29.10;;
25525;SDS011;13424;48.424;11.258;2024-03-02T13:12:35;44.47;;;27.87;;
25525;SDS011;13424;48.424;11.258;2024-03-02T13:15:02;34.17;;;21.08;;
25525;SDS011;13424;48.424;11.258;2024-03-02T13:17:30;31.08;;;18.95;;
25525;SDS011;13424;48.424;11.258;2024-03-02T13:19:58;30.50;;;18.92;;
25525;SDS011;13424;48.424;11.258;2024-03-02T13:22:25;32.65;;;19.05;;
25525;SDS011;13424;48.424;11.258;2024-03-02T13:24:52;32.55;;;18.65;;
25525;SDS011;13424;48.424;11.258;2024-03-02T13:27:22;29.63;;;17.63;;
25525;SDS011;13424;48.424;11.258;2024-03-02T13:29:48;31.75;;;18.27;;
25525;SDS011;13424;48.424;11.258;2024-03-02T13:32:15;29.88;;;17.88;;
25525;SDS011;13424;48.424;11.258;2024-03-02T13:34:42;36.30;;;21.48;;
25525;SDS011;13424;48.424;11.258;2024-03-02T13:37:08;30.90;;;18.02;;
25525;SDS011;13424;48.424;11.258;2024-03-02T13:39:35;24.50;;;16.23;;
25525;SDS011;13424;48.424;11.258;2024-03-02T13:42:11;24.48;;;15.23;;
25525;SDS011;13424;48.424;11.258;2024-03-02T13:44:40;24.58;;;16.00;;
25525;SDS011;13424;48.424;11.258;2024-03-02T13:47:20;22.02;;;14.35;;
25525;SDS011;13424;48.424;11.258;2024-03-02T13:49:46;22.33;;;14.43;;
25525;SDS011;13424;48.424;11.258;2024-03-02T13:52:14;28.48;;;15.45;;
25525;SDS011;13424;48.424;11.258;2024-03-02T13:54:45;25.48;;;15.13;;
25525;SDS011;13424;48.424;11.258;2024-03-02T13:57:12;26.33;;;16.35;;
25525;SDS011;13424;48.424;11.258;2024-03-02T13:59:41;33.60;;;17.73;;
25525;SDS011;13424;48.424;11.258;2024-03-02T14:02:09;28.98;;;18.40;;
25525;SDS011;13424;48.424;11.258;2024-03-02T14:04:36;26.80;;;17.92;;
25525;SDS011;13424;48.424;11.258;2024-03-02T14:07:04;31.02;;;19.35;;
25525;SDS011;13424;48.424;11.258;2024-03-02T14:09:32;28.00;;;18.33;;
25525;SDS011;13424;48.424;11.258;2024-03-02T14:11:58;25.27;;;17.60;;
25525;SDS011;13424;48.424;11.258;2024-03-02T14:14:27;30.42;;;19.23;;
25525;SDS011;13424;48.424;11.258;2024-03-02T14:16:54;30.60;;;19.92;;
25525;SDS011;13424;48.424;11.258;2024-03-02T14:19:29;29.98;;;17.80;;
25525;SDS011;13424;48.424;11.258;2024-03-02T14:21:56;26.52;;;17.42;;
25525;SDS011;13424;48.424;11.258;2024-03-02T14:24:22;29.15;;;17.38;;
25525;SDS011;13424;48.424;11.258;2024-03-02T14:26:54;27.23;;;17.02;;
25525;SDS011;13424;48.424;11.258;2024-03-02T14:29:20;23.20;;;16.33;;
25525;SDS011;13424;48.424;11.258;2024-03-02T14:31:45;21.90;;;15.73;;
25525;SDS011;13424;48.424;11.258;2024-03-02T14:34:16;28.63;;;17.30;;
25525;SDS011;13424;48.424;11.258;2024-03-02T14:36:42;30.98;;;18.50;;
25525;SDS011;13424;48.424;11.258;2024-03-02T14:39:11;28.73;;;17.65;;